Paines Hollow, New York
Current Conditions -  °F | °C
As of 12:53 PM on Sunday 25 Jan 2015 (Local Time) from KRME Reporting Station
Clear Clear  
Wind Chill:   Ceiling: Unl
Heat Index: 18°   Visibility: 10mi
Dew Point:   Wind: 14mph
Humidity: 57%   Direction: 280°W
Pressure: 29.87"   Gusts: NA
Location:  42.9627°N, 74.9432°W
Report Text: KRME 251753Z 28012KT 10SM CLR M08/M15 A2987 RMK AO2 SLP121 60000 T10781150 11039 21089 51014
Loading
Personal Weather Stations






























Interactive Weather Map New forecast layout! Learn more

10-Day Weather Forecast

Advertisements
Track Severe Weather on mobile